Skip Navigation Links
NOAA logo - Click to go to the NOAA homepage
NOAA's National Weather Service
Alaska Aviation Weather Unit
  NWS logo - Click to go to the NWS homepage
Left Navbar Graphic     00 AKDT = 08 GMT

   
NOAA is celebrating 200 years of science, service, and stewardship. Visit the NOAA 200th celebration Web site to learn more.
USA.gov is the U.S. Government's official Web portal to all Federal, state and local government Web resources and services.
Facebook
NWS on Facebook

Important Change Regarding the AAWU Web Presence

 

Over the last several months, the AAWU has been working to navigate its webpages to a nationally supported server. Security, as well as other needs, have necessitated the change.  We have been given an extension for the site changeover while we diligently work at addressing feedback received. As of July 14, 2017, aawu.arh.noaa.gov will be discontinued. The new AAWU web address is weather.gov/aawu. It is now live and will run in-parallel with the old site until it is discontinued on July 14, 2017. Please continue to send any feedback or questions regarding the new webpages to nws.ar.aawu.webauthors@noaa.gov.  Thank you for your patience during this time of transition.
AAWU Home :: Display TAF Add Bookmark
TAF CYDQ 101840Z 1019/1105 VRB03KT P6SM SKC
    RMK FCST BASED ON AUTO OBS. NXT FCST BY 110100Z=

METAR CYDQ 240200Z AUTO 21005KT 9SM CLR 11/05 A2992 RMK SLP153= METAR CYDQ 240300Z AUTO 24007KT 9SM BKN055 12/06 A2993 RMK SLP154 DENSITY ALT 2200FT= METAR CYDQ 240400Z AUTO 23006KT 9SM OVC055 11/05 A2993 RMK SLP155= METAR CYDQ 240500Z AUTO 24006KT 9SM SCT230 10/05 A2993 RMK SLP152= METAR CYDQ 240600Z AUTO 19004KT 160V220 9SM SCT200 09/05 A2992 RMK SLP149= CYDQ 240651Z AUTO 13003KT 100V220 5SM HZ SCT140 BKN160 09/05 A2992 RMK SLP148= CYDQ 240654Z AUTO 12005KT 100V220 2 1/2SM HZ SCT140 BKN160 08/05 A2992 RMK VIS VRB 1-3 SLP148= CYDQ 240656Z AUTO 12006KT 100V210 1 3/4SM HZ SCT140 BKN160 08/05 A2992 RMK VIS VRB 3/4-3 SLP148= METAR CYDQ 240700Z AUTO 14005KT 100V170 1 1/4SM HZ SCT140 BKN160 08/05 A2992 RMK VIS VRB 3/4-3 SLP148= CYDQ 240706Z AUTO 11003KT 090V240 2 1/4SM HZ BKN150 09/05 A2991 RMK VIS VRB 3/4-3 SLP146= CYDQ 240708Z AUTO 10003KT 070V240 3SM HZ BKN140 BKN160 09/05 A2992 RMK SLP147= CYDQ 240718Z AUTO VRB02KT 9SM BKN140 BKN160 08/05 A2992 RMK SLP147= CYDQ 240730Z AUTO 13004KT 100V250 5SM HZ SCT140 SCT160 08/05 A2992 RMK SLP147= SPECI CYDQ 240733Z AUTO 15004KT 100V240 2 1/2SM HZ SCT140 SCT160 09/05 A2992 RMK VIS VRB 3/4-3 SLP147= CYDQ 240738Z AUTO 12005KT 100V180 1 3/4SM HZ FEW140 SCT160 08/05 A2992 RMK VIS VRB 3/4-3 SLP148= SPECI CYDQ 240747Z AUTO 11005KT 3/4SM HZ SCT050 SCT150 08/05 A2992 RMK SLP148= CYDQ 240751Z AUTO 11004KT 1SM HZ FEW050 SCT140 SCT160 08/05 A2991 RMK SLP147= METAR CYDQ 240800Z AUTO 11005KT 090V160 1 1/2SM HZ FEW050 BKN130 BKN150 08/05 A2991 RMK VIS VRB 3/4-3 SLP146= CYDQ 240816Z AUTO 11005KT 3/4SM HZ BKN130 08/05 A2991 RMK SLP145= CYDQ 240822Z AUTO 11005KT 1SM HZ SCT110 BKN130 08/05 A2991 RMK VIS VRB 3/4-2 SLP145=
 Alaska TAF Map

NOAA's National Weather Service
Alaska Aviation Weather Unit
6930 Sand Lake Road
Anchorage, AK 99502-1845
Disclaimer
Credits
Glossary
Privacy Policy
About Us
Career Opportunities
Contact AAWU Internet Services Site last modified: April, 17th 2012